Time;durP1;ratioP1;P1;durP2;ratioP2;P2;SDS_P1;SDS_P2;PMS_P1;PMS_P2;Temp;Humidity;BMP_temperature;BMP_pressure;BME280_temperature;BME280_humidity;BME280_pressure;Samples;Min_cycle;Max_cycle;Signal;HPM_P1;HPM_P2
2022/08/07 00:02:13;;;;;;;;;;;;;;;26.38;49.35;98559.31;5143808;27;19924;-66
2022/08/07 00:04:39;;;;;;;;;;;;;;;26.36;49.76;98561.59;5144413;27;19923;-66
2022/08/07 00:07:05;;;;;;;;;;;;;;;25.49;50.28;98558.69;5142730;27;19928;-68
2022/08/07 00:09:32;;;;;;;;;;;;;;;24.73;51.74;98568.69;5140624;27;19924;-66
2022/08/07 00:11:58;;;;;;;;;;;;;;;24.27;53.42;98565.16;5140756;27;19927;-66
2022/08/07 00:14:25;;;;;;;;;;;;;;;24.20;53.31;98567.66;5140771;27;19947;-66
2022/08/07 00:16:53;;;;;;;;;;;;;;;24.39;53.19;98572.56;5140841;27;19928;-65
2022/08/07 00:19:20;;;;;;;;;;;;;;;24.46;53.55;98575.56;5132562;27;19923;-67
2022/08/07 00:21:46;;;;;;;;;;;;;;;24.73;53.00;98575.72;5140625;27;19931;-67
2022/08/07 00:24:12;;;;;;;;;;;;;;;24.90;52.43;98580.22;5143285;27;19971;-67
2022/08/07 00:26:39;;;;;;;;;;;;;;;24.90;52.61;98579.41;5144030;27;19962;-68
2022/08/07 00:29:05;;;;;;;;;;;;;;;24.89;52.49;98575.09;5142408;27;19934;-68
2022/08/07 00:31:31;;;;;;;;;;;;;;;24.90;52.43;98572.03;5140496;27;19959;-65
2022/08/07 00:33:59;;;;;;;;;;;;;;;24.87;52.54;98569.16;5140145;27;19927;-65
2022/08/07 00:36:25;;;;;;;;;;;;;;;24.82;52.80;98575.66;5143959;27;19962;-66
2022/08/07 00:38:52;;;;;;;;;;;;;;;24.78;52.54;98568.47;5144053;27;19946;-65
2022/08/07 00:41:25;;;;;;;;;;;;;;;23.67;55.03;98573.03;5140367;27;19942;-67
2022/08/07 00:43:51;;;;;;;;;;;;;;;22.17;58.83;98581.63;5139790;27;19928;-66
2022/08/07 00:46:17;;;;;;;;;;;;;;;21.17;66.92;98580.09;5139795;27;19927;-65
2022/08/07 00:48:44;;;;;;;;;;;;;;;20.86;75.05;98580.09;5139942;27;19923;-66
2022/08/07 00:51:11;;;;;;;;;;;;;;;20.87;77.57;98571.66;5142119;27;19924;-65
2022/08/07 00:53:38;;;;;;;;;;;;;;;20.72;78.95;98569.38;5143447;27;20788;-66
2022/08/07 00:56:05;;;;;;;;;;;;;;;21.12;75.91;98575.59;5142001;27;19930;-65
2022/08/07 00:58:31;;;;;;;;;;;;;;;20.73;79.08;98575.59;5139739;27;19951;-66
2022/08/07 01:00:58;;;;;;;;;;;;;;;22.55;69.10;98574.38;5140190;27;19932;-66
2022/08/07 01:03:24;;;;;;;;;;;;;;;22.97;66.07;98569.91;5143255;27;19931;-65
2022/08/07 01:05:52;;;;;;;;;;;;;;;23.02;64.36;98575.19;5142617;27;19927;-65
2022/08/07 01:08:20;;;;;;;;;;;;;;;23.58;61.75;98562.97;5126821;27;19985;-66
2022/08/07 01:10:47;;;;;;;;;;;;;;;23.87;60.48;98570.31;5135232;27;19963;-66
2022/08/07 01:13:13;;;;;;;;;;;;;;;23.93;59.80;98571.69;5139864;27;19938;-65
2022/08/07 01:15:40;;;;;;;;;;;;;;;23.99;58.97;98559.44;5143316;27;20005;-66
2022/08/07 01:18:06;;;;;;;;;;;;;;;23.72;59.52;98568.19;5141387;27;19923;-66
2022/08/07 01:20:34;;;;;;;;;;;;;;;23.75;59.37;98563.97;5139632;27;19926;-66
2022/08/07 01:23:03;;;;;;;;;;;;;;;23.76;59.21;98563.66;5140712;27;19930;-66
2022/08/07 01:25:29;;;;;;;;;;;;;;;23.81;58.95;98565.38;5142941;27;20000;-65
2022/08/07 01:27:56;;;;;;;;;;;;;;;23.77;58.97;98557.06;5142786;27;19924;-66
2022/08/07 01:30:22;;;;;;;;;;;;;;;23.76;58.84;98560.13;5139426;27;19958;-66
2022/08/07 01:32:48;;;;;;;;;;;;;;;23.57;59.55;98558.69;5139348;27;20010;-67
2022/08/07 01:35:15;;;;;;;;;;;;;;;23.59;59.05;98561.84;5142489;27;19957;-66
2022/08/07 01:37:41;;;;;;;;;;;;;;;23.59;59.14;98564.59;5142766;27;19924;-65
2022/08/07 01:40:10;;;;;;;;;;;;;;;23.58;59.37;98556.75;5140733;27;19928;-66
2022/08/07 01:42:36;;;;;;;;;;;;;;;23.54;59.36;98559.34;5136537;28;20412;-65
2022/08/07 01:45:03;;;;;;;;;;;;;;;23.62;59.14;98568.56;5140325;27;19927;-65
2022/08/07 01:47:30;;;;;;;;;;;;;;;23.26;59.81;98573.75;5142494;27;19931;-66
2022/08/07 01:49:56;;;;;;;;;;;;;;;22.79;61.17;98573.81;5142380;27;19923;-66
2022/08/07 01:52:23;;;;;;;;;;;;;;;22.42;62.63;98567.19;5139115;27;19955;-66
2022/08/07 01:54:51;;;;;;;;;;;;;;;22.69;63.52;98570.66;5139123;27;19997;-66
2022/08/07 01:57:21;;;;;;;;;;;;;;;22.62;63.41;98564.91;5142580;28;19947;-66
2022/08/07 01:59:51;;;;;;;;;;;;;;;22.24;64.36;98557.47;5142674;28;20449;-67
2022/08/07 02:02:20;;;;;;;;;;;;;;;22.31;64.51;98557.75;5139125;28;20063;-66
2022/08/07 02:04:48;;;;;;;;;;;;;;;22.31;65.02;98549.59;5138919;28;19924;-67
2022/08/07 02:07:16;;;;;;;;;;;;;;;22.40;64.91;98547.66;5142097;28;19962;-66
2022/08/07 02:09:45;;;;;;;;;;;;;;;22.35;64.17;98544.31;5142439;28;19923;-66
2022/08/07 02:12:19;;;;;;;;;;;;;;;22.82;63.32;98537.78;5137276;28;19923;-66
2022/08/07 02:14:49;;;;;;;;;;;;;;;22.74;62.31;98535.09;5138919;28;19987;-66
2022/08/07 02:17:16;;;;;;;;;;;;;;;23.04;61.96;98545.66;5142271;27;19953;-66
2022/08/07 02:19:43;;;;;;;;;;;;;;;23.24;60.49;98544.09;5146487;27;19923;-66
2022/08/07 02:22:11;;;;;;;;;;;;;;;23.32;60.17;98543.25;5144159;27;19923;-66
2022/08/07 02:24:37;;;;;;;;;;;;;;;22.88;60.58;98541.91;5142826;27;19924;-65
2022/08/07 02:27:05;;;;;;;;;;;;;;;22.54;61.47;98542.81;5144163;27;19947;-66
2022/08/07 02:29:32;;;;;;;;;;;;;;;22.48;62.51;98540.59;5146428;27;19949;-66
2022/08/07 02:32:01;;;;;;;;;;;;;;;22.70;61.62;98539.59;5145590;27;19927;-66
2022/08/07 02:34:28;;;;;;;;;;;;;;;22.39;61.87;98540.63;5142562;27;20646;-66
2022/08/07 02:36:55;;;;;;;;;;;;;;;21.73;62.38;98544.69;5142809;27;19950;-66
2022/08/07 02:39:22;;;;;;;;;;;;;;;21.81;64.20;98541.19;5146021;27;19933;-65
2022/08/07 02:41:49;;;;;;;;;;;;;;;21.40;64.16;98536.19;5144217;27;19919;-66
2022/08/07 02:44:16;;;;;;;;;;;;;;;21.45;65.03;98533.31;5142482;27;19947;-66
2022/08/07 02:46:43;;;;;;;;;;;;;;;22.20;63.53;98532.03;5142198;27;19924;-65
2022/08/07 02:49:11;;;;;;;;;;;;;;;22.58;61.56;98534.78;5144443;27;19973;-66
2022/08/07 02:51:37;;;;;;;;;;;;;;;22.77;60.10;98531.72;5146074;27;19945;-66
2022/08/07 02:54:05;;;;;;;;;;;;;;;22.92;59.18;98525.72;5144913;27;19997;-66
2022/08/07 02:56:34;;;;;;;;;;;;;;;23.02;58.69;98523.41;5142086;27;20318;-69
2022/08/07 02:59:01;;;;;;;;;;;;;;;23.05;58.30;98527.41;5143587;27;20057;-65
2022/08/07 03:01:28;;;;;;;;;;;;;;;23.02;58.48;98525.34;5145968;27;19926;-66
2022/08/07 03:03:56;;;;;;;;;;;;;;;22.99;58.46;98513.16;5146097;27;19976;-65
2022/08/07 03:06:24;;;;;;;;;;;;;;;22.91;58.53;98513.19;5142267;27;19923;-66
2022/08/07 03:08:51;;;;;;;;;;;;;;;22.80;58.88;98515.53;5142394;27;20018;-67
2022/08/07 03:11:17;;;;;;;;;;;;;;;22.92;58.62;98520.25;5145688;27;19923;-65
2022/08/07 03:13:44;;;;;;;;;;;;;;;22.69;58.87;98511.53;5142915;27;19930;-66
2022/08/07 03:16:10;;;;;;;;;;;;;;;22.32;59.86;98512.28;5143572;27;19969;-67
2022/08/07 03:18:37;;;;;;;;;;;;;;;22.00;60.95;98506.28;5141970;27;19962;-66
2022/08/07 03:21:04;;;;;;;;;;;;;;;21.39;61.74;98512.03;5143355;27;19924;-66
2022/08/07 03:23:32;;;;;;;;;;;;;;;21.18;63.80;98511.88;5145259;27;19945;-66
2022/08/07 03:26:00;;;;;;;;;;;;;;;20.99;64.36;98517.56;5144581;27;19953;-66
2022/08/07 03:28:27;;;;;;;;;;;;;;;21.09;65.72;98511.06;5141061;27;19970;-66
2022/08/07 03:31:17;;;;;;;;;;;;;;;20.88;65.13;98513.53;5141663;27;19920;-65
2022/08/07 03:33:42;;;;;;;;;;;;;;;21.28;64.41;98514.28;5136044;27;19989;-65
2022/08/07 03:36:10;;;;;;;;;;;;;;;21.66;62.81;98519.09;5143576;27;20449;-66
2022/08/07 03:38:39;;;;;;;;;;;;;;;22.16;61.00;98514.72;5145109;27;19961;-66
2022/08/07 03:41:06;;;;;;;;;;;;;;;21.26;61.42;98513.78;5143422;27;19923;-65
2022/08/07 03:43:33;;;;;;;;;;;;;;;21.11;63.61;98521.59;5138167;27;20018;-66
2022/08/07 03:46:00;;;;;;;;;;;;;;;20.73;64.08;98521.31;5143886;27;19994;-66
2022/08/07 03:48:28;;;;;;;;;;;;;;;20.19;66.10;98522.44;5141298;27;19956;-65
2022/08/07 03:50:55;;;;;;;;;;;;;;;19.63;71.68;98526.53;5141247;27;19928;-65
2022/08/07 03:53:21;;;;;;;;;;;;;;;20.23;73.10;98529.66;5144642;27;19952;-65
2022/08/07 03:55:49;;;;;;;;;;;;;;;20.60;70.34;98524.91;5144634;27;20032;-66
2022/08/07 03:58:16;;;;;;;;;;;;;;;20.07;69.87;98517.59;5141567;27;19935;-66
2022/08/07 04:00:42;;;;;;;;;;;;;;;20.22;70.98;98517.22;5140826;27;19927;-66
2022/08/07 04:03:09;;;;;;;;;;;;;;;20.40;70.01;98518.94;5141977;27;19919;-65
2022/08/07 04:05:35;;;;;;;;;;;;;;;20.89;66.20;98519.75;5144460;27;19923;-64
2022/08/07 04:08:03;;;;;;;;;;;;;;;20.17;67.94;98524.69;5143214;27;19927;-66
2022/08/07 04:10:30;;;;;;;;;;;;;;;20.70;66.19;98524.66;5140780;27;19988;-66
2022/08/07 04:12:57;;;;;;;;;;;;;;;20.60;66.26;98522.22;5138392;27;19931;-66
2022/08/07 04:15:24;;;;;;;;;;;;;;;20.83;65.15;98531.88;5144171;27;19931;-66
2022/08/07 04:17:50;;;;;;;;;;;;;;;20.70;65.30;98533.59;5144166;27;19963;-65
2022/08/07 04:20:18;;;;;;;;;;;;;;;21.31;63.85;98537.31;5140999;27;19950;-67
2022/08/07 04:22:44;;;;;;;;;;;;;;;21.47;62.71;98536.53;5140601;27;19927;-66
2022/08/07 04:25:11;;;;;;;;;;;;;;;21.35;63.04;98530.13;5142925;27;20494;-66
2022/08/07 04:27:37;;;;;;;;;;;;;;;21.37;62.19;98522.44;5144073;27;20608;-65
2022/08/07 04:30:06;;;;;;;;;;;;;;;20.94;63.59;98527.75;5142608;27;19982;-66
2022/08/07 04:32:33;;;;;;;;;;;;;;;20.49;65.98;98532.53;5140384;27;19926;-66
2022/08/07 04:35:00;;;;;;;;;;;;;;;20.52;66.47;98529.19;5141014;27;19983;-65
2022/08/07 04:37:26;;;;;;;;;;;;;;;20.60;65.54;98528.44;5143638;27;19923;-65
2022/08/07 04:39:53;;;;;;;;;;;;;;;20.35;66.39;98531.81;5143457;27;19919;-66
2022/08/07 04:42:19;;;;;;;;;;;;;;;20.68;65.85;98535.00;5128371;27;19931;-66
2022/08/07 04:44:45;;;;;;;;;;;;;;;21.17;63.42;98542.09;5139967;27;19962;-65
2022/08/07 04:47:19;;;;;;;;;;;;;;;21.21;62.14;98538.41;5142389;27;19928;-65
2022/08/07 04:49:49;;;;;;;;;;;;;;;21.45;61.45;98546.91;5143630;27;19994;-65
2022/08/07 04:52:21;;;;;;;;;;;;;;;21.79;60.37;98553.47;5140489;27;19958;-65
2022/08/07 04:54:52;;;;;;;;;;;;;;;21.38;60.53;98549.31;5139984;27;19924;-66
2022/08/07 04:57:25;;;;;;;;;;;;;;;20.89;61.75;98538.75;5143441;27;19963;-66
2022/08/07 04:59:55;;;;;;;;;;;;;;;20.78;63.33;98540.16;5143458;27;19942;-65
2022/08/07 05:02:26;;;;;;;;;;;;;;;20.55;63.62;98542.13;5131532;27;19928;-66
2022/08/07 05:04:56;;;;;;;;;;;;;;;20.31;65.59;98542.50;5139785;27;19943;-66
2022/08/07 05:07:25;;;;;;;;;;;;;;;20.17;66.07;98547.19;5131538;27;19934;-65
2022/08/07 05:09:55;;;;;;;;;;;;;;;20.04;68.62;98545.34;5139669;27;19991;-67
2022/08/07 05:12:27;;;;;;;;;;;;;;;20.30;67.54;98550.97;5128754;27;19959;-66
2022/08/07 05:14:57;;;;;;;;;;;;;;;19.68;69.55;98553.50;5139613;27;19958;-65
2022/08/07 05:17:25;;;;;;;;;;;;;;;19.65;69.83;98547.91;5131656;27;19955;-65
2022/08/07 05:19:52;;;;;;;;;;;;;;;20.24;68.72;98549.47;5139306;27;19982;-65
2022/08/07 05:22:21;;;;;;;;;;;;;;;20.29;66.16;98541.22;5142962;27;19924;-65
2022/08/07 05:24:49;;;;;;;;;;;;;;;20.33;66.37;98550.34;5143066;27;19930;-66
2022/08/07 05:27:16;;;;;;;;;;;;;;;20.81;64.72;98544.97;5139751;27;19924;-66
2022/08/07 05:29:43;;;;;;;;;;;;;;;21.00;62.72;98542.78;5139075;27;19966;-65
2022/08/07 05:32:11;;;;;;;;;;;;;;;20.89;62.80;98538.75;5141413;27;19931;-66
2022/08/07 05:34:40;;;;;;;;;;;;;;;20.24;64.89;98536.66;5142780;27;19923;-66
2022/08/07 05:37:07;;;;;;;;;;;;;;;19.05;70.48;98547.28;5141266;27;19974;-66
2022/08/07 05:39:35;;;;;;;;;;;;;;;19.02;75.21;98540.59;5139762;27;19919;-67
2022/08/07 05:42:01;;;;;;;;;;;;;;;19.47;72.38;98540.72;5139227;27;19928;-65
2022/08/07 05:44:30;;;;;;;;;;;;;;;19.39;71.88;98536.81;5139383;27;19924;-66
2022/08/07 05:46:57;;;;;;;;;;;;;;;19.56;70.82;98541.63;5139236;27;19928;-66
2022/08/07 05:49:24;;;;;;;;;;;;;;;19.73;71.17;98534.44;5142992;27;20010;-66
2022/08/07 05:51:52;;;;;;;;;;;;;;;19.63;72.47;98544.69;5142609;27;19961;-66
2022/08/07 05:54:18;;;;;;;;;;;;;;;19.81;71.57;98539.09;5138192;27;19920;-66
2022/08/07 05:56:46;;;;;;;;;;;;;;;20.59;67.54;98542.31;5139117;27;19963;-66
2022/08/07 05:59:15;;;;;;;;;;;;;;;20.45;66.81;98543.22;5141746;28;19953;-66
2022/08/07 06:01:42;;;;;;;;;;;;;;;20.48;66.75;98546.41;5142586;28;19923;-66
2022/08/07 06:04:08;;;;;;;;;;;;;;;21.06;64.76;98541.53;5140697;28;19924;-67
2022/08/07 06:06:35;;;;;;;;;;;;;;;20.85;64.34;98545.94;5139082;28;19931;-66
2022/08/07 06:09:04;;;;;;;;;;;;;;;20.70;65.02;98544.47;5140180;28;19928;-66
2022/08/07 06:11:31;;;;;;;;;;;;;;;20.81;64.18;98540.34;5142661;28;19992;-65
2022/08/07 06:13:58;;;;;;;;;;;;;;;20.62;65.19;98544.41;5139526;28;19979;-66
2022/08/07 06:16:27;;;;;;;;;;;;;;;20.73;64.91;98540.31;5139254;28;19966;-67
2022/08/07 06:18:54;;;;;;;;;;;;;;;21.30;63.25;98541.13;5139117;28;19920;-66
2022/08/07 06:21:20;;;;;;;;;;;;;;;21.80;61.59;98545.00;5130891;28;19924;-66
2022/08/07 06:23:47;;;;;;;;;;;;;;;21.67;61.48;98545.16;5139120;28;19934;-66
2022/08/07 06:26:15;;;;;;;;;;;;;;;22.16;60.06;98535.72;5141827;28;19923;-66
2022/08/07 06:28:48;;;;;;;;;;;;;;;21.91;60.58;98534.66;5142452;28;19927;-67
2022/08/07 06:31:14;;;;;;;;;;;;;;;22.27;60.12;98529.63;5139689;28;19947;-66
2022/08/07 06:33:41;;;;;;;;;;;;;;;22.39;59.36;98535.19;5138883;28;19971;-67
2022/08/07 06:36:09;;;;;;;;;;;;;;;22.18;59.16;98534.28;5140560;28;19955;-66
2022/08/07 06:38:36;;;;;;;;;;;;;;;22.59;59.29;98539.91;5142375;28;19923;-66
2022/08/07 06:41:04;;;;;;;;;;;;;;;22.42;59.04;98539.16;5141200;28;19953;-66
2022/08/07 06:43:34;;;;;;;;;;;;;;;22.70;59.06;98526.78;5135308;28;19958;-66
2022/08/07 06:46:01;;;;;;;;;;;;;;;23.46;57.08;98522.00;5141284;28;19924;-66
2022/08/07 06:48:27;;;;;;;;;;;;;;;23.36;56.24;98524.31;5138836;28;19931;-65
2022/08/07 06:50:55;;;;;;;;;;;;;;;23.31;56.13;98525.31;5138755;28;19927;-66
2022/08/07 06:53:22;;;;;;;;;;;;;;;23.65;55.59;98522.34;5129553;28;19931;-65
2022/08/07 06:55:49;;;;;;;;;;;;;;;23.78;55.13;98528.66;5138803;28;19994;-65
2022/08/07 06:58:16;;;;;;;;;;;;;;;24.05;54.27;98521.81;5141729;28;19934;-67
2022/08/07 07:00:44;;;;;;;;;;;;;;;23.97;54.53;98528.19;5142296;28;19935;-67
2022/08/07 07:03:11;;;;;;;;;;;;;;;24.30;53.48;98531.72;5140048;27;19976;-66
2022/08/07 07:05:38;;;;;;;;;;;;;;;24.39;53.97;98524.22;5141813;27;19963;-66
2022/08/07 07:08:04;;;;;;;;;;;;;;;24.48;52.28;98527.66;5143686;27;19934;-67
2022/08/07 07:10:33;;;;;;;;;;;;;;;24.42;52.28;98518.09;5145828;27;19931;-66
2022/08/07 07:13:03;;;;;;;;;;;;;;;24.84;52.28;98515.22;5136102;27;19930;-65
2022/08/07 07:15:31;;;;;;;;;;;;;;;24.37;51.42;98523.78;5145577;27;19959;-66
2022/08/07 07:18:02;;;;;;;;;;;;;;;24.54;52.81;98515.38;5145383;27;20006;-66
2022/08/07 07:20:31;;;;;;;;;;;;;;;25.01;51.86;98512.25;5142006;27;19919;-66
2022/08/07 07:22:59;;;;;;;;;;;;;;;25.12;51.97;98514.19;5142446;27;19927;-68
2022/08/07 07:25:25;;;;;;;;;;;;;;;25.36;51.32;98513.34;5145401;27;19923;-66
2022/08/07 07:27:54;;;;;;;;;;;;;;;25.39;50.86;98515.38;5145192;27;19942;-66
2022/08/07 07:30:22;;;;;;;;;;;;;;;25.68;49.97;98509.66;5133617;27;19963;-67
2022/08/07 07:32:50;;;;;;;;;;;;;;;24.95;49.93;98508.94;5141847;27;19983;-66
2022/08/07 07:35:17;;;;;;;;;;;;;;;25.34;50.00;98510.16;5144765;27;19934;-66
2022/08/07 07:37:44;;;;;;;;;;;;;;;25.57;49.47;98502.25;5145172;27;19923;-66
2022/08/07 07:40:14;;;;;;;;;;;;;;;25.33;47.19;98505.81;5142942;27;19990;-66
2022/08/07 07:42:41;;;;;;;;;;;;;;;24.76;49.28;98499.72;5138655;27;19931;-65
2022/08/07 07:45:08;;;;;;;;;;;;;;;24.95;49.61;98499.94;5143027;27;19966;-65
2022/08/07 07:47:36;;;;;;;;;;;;;;;24.39;48.00;98499.66;5144623;27;19951;-66
2022/08/07 07:50:03;;;;;;;;;;;;;;;24.26;49.96;98495.34;5143747;27;19983;-66
2022/08/07 07:52:32;;;;;;;;;;;;;;;23.61;50.61;98491.41;5141226;27;19935;-66
2022/08/07 07:54:59;;;;;;;;;;;;;;;23.63;50.40;98497.34;5141690;27;19919;-65
2022/08/07 07:57:26;;;;;;;;;;;;;;;24.01;50.01;98494.44;5144711;27;19923;-66
2022/08/07 07:59:54;;;;;;;;;;;;;;;24.12;50.13;98492.91;5144677;27;19938;-66
2022/08/07 08:02:20;;;;;;;;;;;;;;;24.38;48.54;98500.81;5132741;27;19923;-66
2022/08/07 08:04:47;;;;;;;;;;;;;;;24.27;49.48;98487.91;5141085;27;19928;-66
2022/08/07 08:07:15;;;;;;;;;;;;;;;24.10;49.31;98488.88;5143628;27;19970;-66
2022/08/07 08:09:43;;;;;;;;;;;;;;;24.39;49.59;98485.22;5144360;27;19931;-66
2022/08/07 08:12:09;;;;;;;;;;;;;;;24.76;49.20;98477.84;5139573;27;19969;-66
2022/08/07 08:14:36;;;;;;;;;;;;;;;24.73;47.73;98469.19;5140549;27;19927;-65
2022/08/07 08:17:03;;;;;;;;;;;;;;;24.57;48.11;98473.72;5141782;27;19924;-66
2022/08/07 08:19:31;;;;;;;;;;;;;;;24.40;48.29;98482.16;5144401;27;19923;-66
2022/08/07 08:27:33;;;;;;;;;;;;;;;24.73;48.51;98467.63;5133591;27;19993;-66
2022/08/07 08:30:02;;;;;;;;;;;;;;;25.11;46.96;98474.31;5141098;27;19955;-66
2022/08/07 08:32:31;;;;;;;;;;;;;;;25.23;46.72;98471.56;5143997;27;19924;-66
2022/08/07 08:34:58;;;;;;;;;;;;;;;25.01;45.86;98468.50;5143752;27;19992;-67
2022/08/07 08:37:26;;;;;;;;;;;;;;;24.96;45.86;98466.03;5140523;27;19970;-66
2022/08/07 08:39:55;;;;;;;;;;;;;;;24.55;47.05;98461.56;5140358;27;19931;-66
2022/08/07 08:42:25;;;;;;;;;;;;;;;24.83;47.27;98461.69;5129210;27;19951;-66
2022/08/07 08:44:55;;;;;;;;;;;;;;;24.35;46.00;98460.53;5140027;27;20014;-66
2022/08/07 08:47:24;;;;;;;;;;;;;;;24.17;46.74;98464.56;5131901;27;19959;-66
2022/08/07 08:49:56;;;;;;;;;;;;;;;25.02;46.40;98459.19;5140247;27;19935;-66
2022/08/07 08:52:26;;;;;;;;;;;;;;;24.89;46.02;98463.06;5132215;27;19924;-65
2022/08/07 08:54:57;;;;;;;;;;;;;;;24.08;45.89;98463.84;5140075;27;19991;-66
2022/08/07 08:57:27;;;;;;;;;;;;;;;24.29;46.81;98461.09;5130890;27;19955;-66
2022/08/07 08:59:56;;;;;;;;;;;;;;;25.48;45.95;98455.06;5139912;27;19926;-66
2022/08/07 09:02:29;;;;;;;;;;;;;;;25.98;45.06;98449.88;5131915;27;19982;-65
2022/08/07 09:05:00;;;;;;;;;;;;;;;25.72;45.39;98455.00;5139975;27;19932;-65
2022/08/07 09:07:31;;;;;;;;;;;;;;;26.21;45.16;98444.63;5143256;27;19961;-65
2022/08/07 09:10:01;;;;;;;;;;;;;;;25.68;44.42;98446.72;5143002;27;19956;-66
2022/08/07 09:12:36;;;;;;;;;;;;;;;25.00;45.38;98439.59;5136816;27;19931;-66
2022/08/07 09:15:10;;;;;;;;;;;;;;;25.00;45.25;98445.06;5140797;27;19931;-66
2022/08/07 09:17:41;;;;;;;;;;;;;;;24.32;45.39;98447.56;5143073;27;19945;-67
2022/08/07 09:20:13;;;;;;;;;;;;;;;24.51;46.42;98436.88;5141392;27;19958;-67
2022/08/07 09:22:47;;;;;;;;;;;;;;;24.97;45.23;98443.84;5139488;27;19923;-66
2022/08/07 09:25:21;;;;;;;;;;;;;;;24.84;45.12;98441.44;5142418;27;19948;-67
2022/08/07 09:27:51;;;;;;;;;;;;;;;24.70;44.46;98437.09;5141482;27;19966;-66
2022/08/07 09:30:17;;;;;;;;;;;;;;;24.87;44.32;98438.84;5139879;27;19924;-66
2022/08/07 09:32:50;;;;;;;;;;;;;;;24.35;45.40;98441.44;5139394;27;19931;-67
2022/08/07 09:35:19;;;;;;;;;;;;;;;24.35;44.99;98435.97;5142531;27;19923;-66
2022/08/07 09:37:51;;;;;;;;;;;;;;;24.37;44.99;98436.41;5142960;27;19924;-66
2022/08/07 09:40:23;;;;;;;;;;;;;;;25.13;44.13;98431.03;5139678;27;19962;-65
2022/08/07 09:42:54;;;;;;;;;;;;;;;24.80;44.24;98440.50;5136370;27;19976;-67
2022/08/07 09:45:23;;;;;;;;;;;;;;;24.56;44.50;98439.38;5130658;27;19963;-66
2022/08/07 09:47:59;;;;;;;;;;;;;;;25.87;43.38;98429.66;5139174;27;19945;-67
2022/08/07 09:50:35;;;;;;;;;;;;;;;25.41;43.21;98439.25;5131537;27;19924;-66
2022/08/07 09:53:02;;;;;;;;;;;;;;;25.61;42.22;98432.03;5140110;27;19923;-66
2022/08/07 09:55:37;;;;;;;;;;;;;;;25.23;42.54;98427.81;5142382;27;19951;-66
2022/08/07 09:58:22;;;;;;;;;;;;;;;24.50;42.59;98424.38;5141423;27;19928;-66
2022/08/07 10:00:56;;;;;;;;;;;;;;;25.52;43.47;98423.19;5138845;28;19974;-67
2022/08/07 10:03:43;;;;;;;;;;;;;;;25.61;42.57;98416.44;5131056;28;19924;-66
2022/08/07 10:06:20;;;;;;;;;;;;;;;25.77;41.76;98409.06;5141045;28;19931;-67
2022/08/07 10:08:59;;;;;;;;;;;;;;;25.56;42.43;98413.94;5142564;28;19923;-68
2022/08/07 10:11:37;;;;;;;;;;;;;;;26.16;42.03;98414.75;5131123;28;19923;-66
2022/08/07 10:14:09;;;;;;;;;;;;;;;25.93;40.52;98405.56;5137814;28;19919;-68
2022/08/07 10:16:41;;;;;;;;;;;;;;;26.42;41.39;98398.63;5142413;28;19923;-68
2022/08/07 10:19:16;;;;;;;;;;;;;;;26.41;41.07;98390.72;5140593;28;19927;-66
2022/08/07 10:21:48;;;;;;;;;;;;;;;26.06;41.42;98393.34;5138701;28;19995;-66
2022/08/07 10:24:23;;;;;;;;;;;;;;;26.06;41.17;98396.09;5141760;28;19924;-67
2022/08/07 10:27:01;;;;;;;;;;;;;;;27.01;40.18;98389.41;5142411;28;19947;-67
2022/08/07 10:29:45;;;;;;;;;;;;;;;26.40;39.93;98378.97;5131243;28;19924;-66
2022/08/07 10:32:20;;;;;;;;;;;;;;;25.98;41.09;98386.13;5140705;28;19931;-66
2022/08/07 10:34:54;;;;;;;;;;;;;;;26.15;40.50;98383.84;5142221;28;19927;-66
2022/08/07 10:37:27;;;;;;;;;;;;;;;25.70;41.20;98376.03;5130360;28;19983;-68
2022/08/07 10:39:58;;;;;;;;;;;;;;;25.61;41.04;98385.53;5142632;27;19963;-67
2022/08/07 10:42:30;;;;;;;;;;;;;;;25.46;40.97;98370.66;5132219;27;19962;-67
2022/08/07 10:45:01;;;;;;;;;;;;;;;25.92;41.23;98376.59;5142628;27;19949;-67
2022/08/07 10:47:33;;;;;;;;;;;;;;;26.86;40.26;98369.13;5146124;27;19929;-67
2022/08/07 10:50:03;;;;;;;;;;;;;;;26.88;40.02;98364.06;5145407;27;19930;-67
2022/08/07 10:52:34;;;;;;;;;;;;;;;26.64;39.34;98356.88;5142361;27;19928;-66
2022/08/07 10:55:07;;;;;;;;;;;;;;;26.19;38.53;98356.56;5143230;27;19934;-67
2022/08/07 10:57:40;;;;;;;;;;;;;;;25.95;39.28;98364.94;5145777;27;19941;-66
2022/08/07 11:00:09;;;;;;;;;;;;;;;25.45;39.67;98362.78;5144279;27;19955;-66
2022/08/07 11:02:39;;;;;;;;;;;;;;;25.22;40.79;98357.09;5142200;27;20485;-66
2022/08/07 11:05:11;;;;;;;;;;;;;;;25.05;41.02;98351.91;5143808;27;19924;-66
2022/08/07 11:07:40;;;;;;;;;;;;;;;25.08;41.48;98353.94;5145713;27;19991;-66
2022/08/07 11:10:11;;;;;;;;;;;;;;;25.31;41.50;98357.75;5144016;27;20018;-66
2022/08/07 11:12:42;;;;;;;;;;;;;;;26.29;40.87;98342.34;5139196;27;19934;-66
2022/08/07 11:15:11;;;;;;;;;;;;;;;26.42;39.54;98346.56;5144088;27;19997;-67
2022/08/07 11:17:39;;;;;;;;;;;;;;;26.28;39.89;98338.00;5145706;27;19987;-66
2022/08/07 11:20:07;;;;;;;;;;;;;;;26.07;39.89;98340.22;5144289;27;19986;-66
2022/08/07 11:22:35;;;;;;;;;;;;;;;26.09;40.74;98335.19;5141912;27;20395;-67
2022/08/07 11:25:05;;;;;;;;;;;;;;;26.68;40.23;98335.81;5142999;27;19923;-66
2022/08/07 11:27:40;;;;;;;;;;;;;;;26.44;40.47;98338.78;5145421;27;19928;-68
2022/08/07 11:30:11;;;;;;;;;;;;;;;26.22;40.21;98332.00;5143747;27;19927;-67
2022/08/07 11:32:39;;;;;;;;;;;;;;;26.53;40.73;98328.41;5141594;27;19927;-65
2022/08/07 11:35:08;;;;;;;;;;;;;;;26.97;39.54;98320.78;5143263;27;19923;-68
2022/08/07 11:37:47;;;;;;;;;;;;;;;27.07;39.48;98319.44;5145151;27;19997;-66
2022/08/07 11:40:19;;;;;;;;;;;;;;;26.91;39.72;98319.50;5142517;27;20426;-66
2022/08/07 11:42:53;;;;;;;;;;;;;;;26.60;40.17;98314.09;5138666;27;19923;-66
2022/08/07 11:45:28;;;;;;;;;;;;;;;26.56;40.19;98314.00;5144838;27;19965;-65
2022/08/07 11:48:05;;;;;;;;;;;;;;;26.54;40.35;98307.31;5145088;27;19965;-65
2022/08/07 11:50:41;;;;;;;;;;;;;;;26.25;40.50;98314.06;5134060;27;19958;-66
2022/08/07 11:53:15;;;;;;;;;;;;;;;25.85;40.60;98314.25;5143468;27;19994;-66
2022/08/07 11:55:48;;;;;;;;;;;;;;;25.62;41.08;98307.81;5144953;27;20010;-67
2022/08/07 11:58:19;;;;;;;;;;;;;;;26.32;41.13;98303.31;5142335;27;19938;-66
2022/08/07 12:00:55;;;;;;;;;;;;;;;26.37;40.66;98303.00;5141200;27;19927;-66
2022/08/07 12:03:36;;;;;;;;;;;;;;;26.06;40.71;98303.03;5132946;27;20567;-65
2022/08/07 12:06:12;;;;;;;;;;;;;;;26.21;41.04;98302.28;5142331;27;19924;-67
2022/08/07 12:08:44;;;;;;;;;;;;;;;26.54;40.60;98297.16;5144871;27;19923;-67
2022/08/07 12:11:15;;;;;;;;;;;;;;;27.04;40.34;98300.97;5142522;27;19993;-66
2022/08/07 12:13:42;;;;;;;;;;;;;;;26.96;40.18;98291.00;5138896;27;19930;-65
2022/08/07 12:16:15;;;;;;;;;;;;;;;26.78;40.00;98285.13;5142695;27;19919;-66
2022/08/07 12:18:46;;;;;;;;;;;;;;;26.68;40.25;98294.69;5140637;27;19931;-66
2022/08/07 12:21:16;;;;;;;;;;;;;;;26.36;40.47;98290.50;5143389;27;19991;-66
2022/08/07 12:23:46;;;;;;;;;;;;;;;26.33;40.24;98279.44;5144376;27;19924;-65
2022/08/07 12:26:15;;;;;;;;;;;;;;;26.26;40.90;98282.81;5141939;27;19924;-66
2022/08/07 12:28:43;;;;;;;;;;;;;;;26.48;40.56;98282.16;5140718;27;19924;-66
2022/08/07 12:31:14;;;;;;;;;;;;;;;26.62;40.58;98279.69;5142677;27;19927;-66
2022/08/07 12:33:41;;;;;;;;;;;;;;;26.59;39.97;98274.16;5144135;27;19924;-66
2022/08/07 12:36:09;;;;;;;;;;;;;;;26.79;40.71;98273.81;5142444;27;19923;-67
2022/08/07 12:38:37;;;;;;;;;;;;;;;27.17;40.14;98267.53;5140493;27;19928;-66
2022/08/07 12:41:05;;;;;;;;;;;;;;;27.10;40.06;98266.63;5141882;27;19924;-67
2022/08/07 12:43:32;;;;;;;;;;;;;;;27.12;39.24;98262.34;5141209;27;19930;-66
2022/08/07 12:46:06;;;;;;;;;;;;;;;27.26;39.37;98259.09;5143284;27;19920;-65
2022/08/07 12:48:39;;;;;;;;;;;;;;;27.13;39.67;98263.16;5140302;27;19931;-68
2022/08/07 12:51:09;;;;;;;;;;;;;;;26.57;40.24;98260.81;5141930;27;19966;-66
2022/08/07 12:53:40;;;;;;;;;;;;;;;26.90;40.60;98246.63;5143849;27;19938;-66
2022/08/07 12:56:09;;;;;;;;;;;;;;;26.95;40.04;98246.38;5142343;27;19991;-67
2022/08/07 12:58:37;;;;;;;;;;;;;;;26.87;39.90;98247.38;5140293;27;19962;-67
2022/08/07 13:01:08;;;;;;;;;;;;;;;26.96;39.61;98236.16;5141130;27;19970;-66
2022/08/07 13:03:50;;;;;;;;;;;;;;;26.83;39.84;98241.81;5143449;27;19929;-67